sensor_id;sensor_type;location;lat;lon;timestamp;P1;durP1;ratioP1;P2;durP2;ratioP2
20928;SDS011;21895;47.072;15.132;2022-10-16T00:01:33;43.03;;;22.30;;
20928;SDS011;21895;47.072;15.132;2022-10-16T00:04:01;40.37;;;21.63;;
20928;SDS011;21895;47.072;15.132;2022-10-16T00:06:28;40.60;;;22.03;;
20928;SDS011;21895;47.072;15.132;2022-10-16T00:08:56;46.17;;;22.10;;
20928;SDS011;21895;47.072;15.132;2022-10-16T00:11:27;44.97;;;22.87;;
20928;SDS011;21895;47.072;15.132;2022-10-16T00:13:59;50.67;;;21.83;;
20928;SDS011;21895;47.072;15.132;2022-10-16T00:16:28;43.43;;;22.30;;
20928;SDS011;21895;47.072;15.132;2022-10-16T00:18:55;44.47;;;22.93;;
20928;SDS011;21895;47.072;15.132;2022-10-16T00:21:23;44.93;;;22.07;;
20928;SDS011;21895;47.072;15.132;2022-10-16T00:23:54;41.97;;;21.70;;
20928;SDS011;21895;47.072;15.132;2022-10-16T00:26:30;47.03;;;21.50;;
20928;SDS011;21895;47.072;15.132;2022-10-16T00:28:59;37.20;;;20.37;;
20928;SDS011;21895;47.072;15.132;2022-10-16T00:31:26;46.13;;;21.27;;
20928;SDS011;21895;47.072;15.132;2022-10-16T00:33:53;54.33;;;23.70;;
20928;SDS011;21895;47.072;15.132;2022-10-16T00:36:21;51.27;;;24.43;;
20928;SDS011;21895;47.072;15.132;2022-10-16T00:38:52;52.87;;;23.97;;
20928;SDS011;21895;47.072;15.132;2022-10-16T00:41:22;60.57;;;23.33;;
20928;SDS011;21895;47.072;15.132;2022-10-16T00:43:52;52.40;;;22.97;;
20928;SDS011;21895;47.072;15.132;2022-10-16T00:49:15;49.30;;;21.07;;
20928;SDS011;21895;47.072;15.132;2022-10-16T00:51:46;52.17;;;20.23;;
20928;SDS011;21895;47.072;15.132;2022-10-16T00:54:27;47.63;;;20.83;;
20928;SDS011;21895;47.072;15.132;2022-10-16T00:56:58;48.00;;;21.97;;
20928;SDS011;21895;47.072;15.132;2022-10-16T00:59:35;44.90;;;20.03;;
20928;SDS011;21895;47.072;15.132;2022-10-16T01:02:06;47.53;;;21.17;;
20928;SDS011;21895;47.072;15.132;2022-10-16T01:04:39;50.67;;;20.73;;
20928;SDS011;21895;47.072;15.132;2022-10-16T01:07:36;44.07;;;20.33;;
20928;SDS011;21895;47.072;15.132;2022-10-16T01:11:08;44.90;;;19.30;;
20928;SDS011;21895;47.072;15.132;2022-10-16T01:13:48;51.47;;;21.73;;
20928;SDS011;21895;47.072;15.132;2022-10-16T01:16:29;42.00;;;20.63;;
20928;SDS011;21895;47.072;15.132;2022-10-16T01:19:20;46.13;;;20.13;;
20928;SDS011;21895;47.072;15.132;2022-10-16T01:22:33;45.10;;;20.93;;
20928;SDS011;21895;47.072;15.132;2022-10-16T01:25:53;44.27;;;21.07;;
20928;SDS011;21895;47.072;15.132;2022-10-16T01:30:51;39.50;;;18.97;;
20928;SDS011;21895;47.072;15.132;2022-10-16T01:33:24;38.40;;;19.20;;
20928;SDS011;21895;47.072;15.132;2022-10-16T01:36:03;46.73;;;21.80;;
20928;SDS011;21895;47.072;15.132;2022-10-16T01:38:38;42.63;;;21.47;;
20928;SDS011;21895;47.072;15.132;2022-10-16T01:41:14;41.93;;;20.00;;
20928;SDS011;21895;47.072;15.132;2022-10-16T01:43:56;40.60;;;19.77;;
20928;SDS011;21895;47.072;15.132;2022-10-16T01:46:37;38.07;;;19.83;;
20928;SDS011;21895;47.072;15.132;2022-10-16T01:49:07;39.03;;;19.37;;
20928;SDS011;21895;47.072;15.132;2022-10-16T01:51:37;41.27;;;20.90;;
20928;SDS011;21895;47.072;15.132;2022-10-16T01:54:05;47.90;;;20.20;;
20928;SDS011;21895;47.072;15.132;2022-10-16T01:56:35;34.53;;;18.67;;
20928;SDS011;21895;47.072;15.132;2022-10-16T01:59:05;40.77;;;18.53;;
20928;SDS011;21895;47.072;15.132;2022-10-16T02:01:38;35.63;;;17.60;;
20928;SDS011;21895;47.072;15.132;2022-10-16T02:04:17;43.27;;;18.03;;
20928;SDS011;21895;47.072;15.132;2022-10-16T02:07:00;36.57;;;18.40;;
20928;SDS011;21895;47.072;15.132;2022-10-16T02:09:27;34.57;;;18.00;;
20928;SDS011;21895;47.072;15.132;2022-10-16T02:11:59;40.10;;;18.40;;
20928;SDS011;21895;47.072;15.132;2022-10-16T02:14:37;37.03;;;17.53;;
20928;SDS011;21895;47.072;15.132;2022-10-16T02:17:12;37.20;;;18.20;;
20928;SDS011;21895;47.072;15.132;2022-10-16T02:19:43;39.43;;;19.67;;
20928;SDS011;21895;47.072;15.132;2022-10-16T02:22:46;38.13;;;18.07;;
20928;SDS011;21895;47.072;15.132;2022-10-16T02:25:19;42.93;;;19.10;;
20928;SDS011;21895;47.072;15.132;2022-10-16T02:27:57;38.37;;;18.43;;
20928;SDS011;21895;47.072;15.132;2022-10-16T02:31:01;39.50;;;18.60;;
20928;SDS011;21895;47.072;15.132;2022-10-16T02:33:34;38.40;;;17.87;;
20928;SDS011;21895;47.072;15.132;2022-10-16T02:36:03;37.63;;;18.70;;
20928;SDS011;21895;47.072;15.132;2022-10-16T02:38:31;37.70;;;17.03;;
20928;SDS011;21895;47.072;15.132;2022-10-16T02:40:58;31.97;;;17.20;;
20928;SDS011;21895;47.072;15.132;2022-10-16T02:43:25;40.53;;;16.80;;
20928;SDS011;21895;47.072;15.132;2022-10-16T02:45:52;33.67;;;16.20;;
20928;SDS011;21895;47.072;15.132;2022-10-16T02:48:18;74.50;;;16.87;;
20928;SDS011;21895;47.072;15.132;2022-10-16T02:50:45;83.60;;;16.90;;
20928;SDS011;21895;47.072;15.132;2022-10-16T02:53:11;73.30;;;17.63;;
20928;SDS011;21895;47.072;15.132;2022-10-16T02:55:38;80.93;;;17.77;;
20928;SDS011;21895;47.072;15.132;2022-10-16T02:58:04;44.07;;;17.07;;
20928;SDS011;21895;47.072;15.132;2022-10-16T03:00:31;114.00;;;17.47;;
20928;SDS011;21895;47.072;15.132;2022-10-16T03:02:57;65.83;;;17.27;;
20928;SDS011;21895;47.072;15.132;2022-10-16T03:05:24;125.77;;;18.30;;
20928;SDS011;21895;47.072;15.132;2022-10-16T03:07:50;74.13;;;17.43;;
20928;SDS011;21895;47.072;15.132;2022-10-16T03:10:18;123.33;;;17.93;;
20928;SDS011;21895;47.072;15.132;2022-10-16T03:12:44;66.03;;;17.50;;
20928;SDS011;21895;47.072;15.132;2022-10-16T03:15:11;67.67;;;16.60;;
20928;SDS011;21895;47.072;15.132;2022-10-16T03:17:37;34.73;;;16.20;;
20928;SDS011;21895;47.072;15.132;2022-10-16T03:20:04;31.47;;;16.87;;
20928;SDS011;21895;47.072;15.132;2022-10-16T03:22:31;34.37;;;16.70;;
20928;SDS011;21895;47.072;15.132;2022-10-16T03:24:57;38.07;;;17.17;;
20928;SDS011;21895;47.072;15.132;2022-10-16T03:27:24;34.80;;;15.37;;
20928;SDS011;21895;47.072;15.132;2022-10-16T03:29:51;31.17;;;14.10;;
20928;SDS011;21895;47.072;15.132;2022-10-16T03:32:17;40.57;;;15.67;;
20928;SDS011;21895;47.072;15.132;2022-10-16T03:34:45;31.20;;;15.23;;
20928;SDS011;21895;47.072;15.132;2022-10-16T03:37:12;38.00;;;14.23;;
20928;SDS011;21895;47.072;15.132;2022-10-16T03:39:38;33.33;;;14.17;;
20928;SDS011;21895;47.072;15.132;2022-10-16T03:42:05;32.97;;;14.73;;
20928;SDS011;21895;47.072;15.132;2022-10-16T03:44:31;24.20;;;13.00;;
20928;SDS011;21895;47.072;15.132;2022-10-16T03:46:58;23.50;;;13.07;;
20928;SDS011;21895;47.072;15.132;2022-10-16T03:49:24;30.60;;;12.10;;
20928;SDS011;21895;47.072;15.132;2022-10-16T03:51:51;24.20;;;12.83;;
20928;SDS011;21895;47.072;15.132;2022-10-16T03:54:17;25.70;;;12.27;;
20928;SDS011;21895;47.072;15.132;2022-10-16T03:56:43;24.13;;;11.83;;
20928;SDS011;21895;47.072;15.132;2022-10-16T03:59:10;28.57;;;11.90;;
20928;SDS011;21895;47.072;15.132;2022-10-16T04:01:36;22.00;;;12.43;;
20928;SDS011;21895;47.072;15.132;2022-10-16T04:04:03;20.53;;;11.27;;
20928;SDS011;21895;47.072;15.132;2022-10-16T04:06:30;21.83;;;11.77;;
20928;SDS011;21895;47.072;15.132;2022-10-16T04:08:56;26.57;;;12.70;;
20928;SDS011;21895;47.072;15.132;2022-10-16T04:11:23;26.03;;;13.23;;
20928;SDS011;21895;47.072;15.132;2022-10-16T04:13:49;25.70;;;12.80;;
20928;SDS011;21895;47.072;15.132;2022-10-16T04:16:16;29.00;;;11.53;;
20928;SDS011;21895;47.072;15.132;2022-10-16T04:18:42;19.57;;;11.00;;
20928;SDS011;21895;47.072;15.132;2022-10-16T04:21:09;24.07;;;11.47;;
20928;SDS011;21895;47.072;15.132;2022-10-16T04:23:35;21.93;;;11.37;;
20928;SDS011;21895;47.072;15.132;2022-10-16T04:26:02;21.30;;;10.83;;
20928;SDS011;21895;47.072;15.132;2022-10-16T04:28:28;28.57;;;11.17;;
20928;SDS011;21895;47.072;15.132;2022-10-16T04:30:55;24.67;;;10.23;;
20928;SDS011;21895;47.072;15.132;2022-10-16T04:33:21;18.30;;;10.90;;
20928;SDS011;21895;47.072;15.132;2022-10-16T04:35:48;22.23;;;10.00;;
20928;SDS011;21895;47.072;15.132;2022-10-16T04:38:21;32.47;;;11.10;;
20928;SDS011;21895;47.072;15.132;2022-10-16T04:40:47;27.07;;;10.87;;
20928;SDS011;21895;47.072;15.132;2022-10-16T04:43:14;20.43;;;9.90;;
20928;SDS011;21895;47.072;15.132;2022-10-16T04:45:40;21.40;;;10.33;;
20928;SDS011;21895;47.072;15.132;2022-10-16T04:48:07;28.10;;;11.13;;
20928;SDS011;21895;47.072;15.132;2022-10-16T04:50:33;28.13;;;11.53;;
20928;SDS011;21895;47.072;15.132;2022-10-16T04:53:00;19.50;;;11.33;;
20928;SDS011;21895;47.072;15.132;2022-10-16T04:55:26;21.07;;;11.97;;
20928;SDS011;21895;47.072;15.132;2022-10-16T04:57:53;24.57;;;11.37;;
20928;SDS011;21895;47.072;15.132;2022-10-16T05:00:19;20.63;;;10.43;;
20928;SDS011;21895;47.072;15.132;2022-10-16T05:02:49;25.47;;;10.57;;
20928;SDS011;21895;47.072;15.132;2022-10-16T05:05:16;21.13;;;10.67;;
20928;SDS011;21895;47.072;15.132;2022-10-16T05:07:45;56.23;;;11.37;;
20928;SDS011;21895;47.072;15.132;2022-10-16T05:10:13;45.27;;;11.33;;
20928;SDS011;21895;47.072;15.132;2022-10-16T05:12:40;31.63;;;10.03;;
20928;SDS011;21895;47.072;15.132;2022-10-16T05:15:06;20.40;;;8.80;;
20928;SDS011;21895;47.072;15.132;2022-10-16T05:17:34;21.93;;;8.83;;
20928;SDS011;21895;47.072;15.132;2022-10-16T05:20:00;22.80;;;9.20;;
20928;SDS011;21895;47.072;15.132;2022-10-16T05:22:28;43.20;;;10.53;;
20928;SDS011;21895;47.072;15.132;2022-10-16T05:24:55;27.43;;;10.17;;
20928;SDS011;21895;47.072;15.132;2022-10-16T05:27:21;17.10;;;9.43;;
20928;SDS011;21895;47.072;15.132;2022-10-16T05:29:49;29.43;;;10.33;;
20928;SDS011;21895;47.072;15.132;2022-10-16T05:32:15;24.33;;;10.77;;
20928;SDS011;21895;47.072;15.132;2022-10-16T05:34:43;26.53;;;9.87;;
20928;SDS011;21895;47.072;15.132;2022-10-16T05:37:11;32.87;;;11.87;;
20928;SDS011;21895;47.072;15.132;2022-10-16T05:39:38;16.17;;;9.67;;
20928;SDS011;21895;47.072;15.132;2022-10-16T05:42:05;50.70;;;10.93;;
20928;SDS011;21895;47.072;15.132;2022-10-16T05:44:31;26.27;;;10.20;;
20928;SDS011;21895;47.072;15.132;2022-10-16T05:46:58;18.50;;;9.77;;
20928;SDS011;21895;47.072;15.132;2022-10-16T05:49:25;23.37;;;9.80;;
20928;SDS011;21895;47.072;15.132;2022-10-16T05:51:51;21.73;;;12.07;;
20928;SDS011;21895;47.072;15.132;2022-10-16T05:54:18;31.33;;;9.77;;
20928;SDS011;21895;47.072;15.132;2022-10-16T05:56:44;33.73;;;10.43;;
20928;SDS011;21895;47.072;15.132;2022-10-16T05:59:11;16.77;;;9.67;;
20928;SDS011;21895;47.072;15.132;2022-10-16T06:01:37;23.00;;;10.40;;
20928;SDS011;21895;47.072;15.132;2022-10-16T06:04:04;19.20;;;9.83;;
20928;SDS011;21895;47.072;15.132;2022-10-16T06:06:30;20.47;;;9.70;;
20928;SDS011;21895;47.072;15.132;2022-10-16T06:08:57;52.70;;;10.23;;
20928;SDS011;21895;47.072;15.132;2022-10-16T06:11:26;29.40;;;8.60;;
20928;SDS011;21895;47.072;15.132;2022-10-16T06:13:56;18.27;;;9.17;;
20928;SDS011;21895;47.072;15.132;2022-10-16T06:16:27;15.03;;;9.10;;
20928;SDS011;21895;47.072;15.132;2022-10-16T06:18:55;17.43;;;8.83;;
20928;SDS011;21895;47.072;15.132;2022-10-16T06:21:23;18.47;;;9.03;;
20928;SDS011;21895;47.072;15.132;2022-10-16T06:23:52;14.87;;;8.60;;
20928;SDS011;21895;47.072;15.132;2022-10-16T06:26:20;22.23;;;8.57;;
20928;SDS011;21895;47.072;15.132;2022-10-16T06:28:49;17.57;;;8.70;;
20928;SDS011;21895;47.072;15.132;2022-10-16T06:31:16;14.20;;;7.83;;
20928;SDS011;21895;47.072;15.132;2022-10-16T06:33:43;18.73;;;9.03;;
20928;SDS011;21895;47.072;15.132;2022-10-16T06:36:12;27.10;;;8.90;;
20928;SDS011;21895;47.072;15.132;2022-10-16T06:38:41;16.30;;;8.43;;
20928;SDS011;21895;47.072;15.132;2022-10-16T06:41:09;26.03;;;10.50;;
20928;SDS011;21895;47.072;15.132;2022-10-16T06:43:40;25.60;;;10.10;;
20928;SDS011;21895;47.072;15.132;2022-10-16T06:46:09;29.10;;;10.87;;
20928;SDS011;21895;47.072;15.132;2022-10-16T06:48:36;21.07;;;10.10;;
20928;SDS011;21895;47.072;15.132;2022-10-16T06:51:04;21.67;;;10.20;;
20928;SDS011;21895;47.072;15.132;2022-10-16T06:53:36;21.60;;;10.10;;
20928;SDS011;21895;47.072;15.132;2022-10-16T06:56:27;22.03;;;11.43;;
20928;SDS011;21895;47.072;15.132;2022-10-16T06:58:56;26.47;;;11.33;;
20928;SDS011;21895;47.072;15.132;2022-10-16T07:01:23;24.57;;;11.70;;
20928;SDS011;21895;47.072;15.132;2022-10-16T07:03:50;31.57;;;12.70;;
20928;SDS011;21895;47.072;15.132;2022-10-16T07:06:18;25.13;;;12.33;;
20928;SDS011;21895;47.072;15.132;2022-10-16T07:08:47;27.20;;;12.13;;
20928;SDS011;21895;47.072;15.132;2022-10-16T07:11:16;29.30;;;12.67;;
20928;SDS011;21895;47.072;15.132;2022-10-16T07:13:45;23.33;;;11.90;;
20928;SDS011;21895;47.072;15.132;2022-10-16T07:16:22;26.33;;;12.40;;
20928;SDS011;21895;47.072;15.132;2022-10-16T07:18:56;23.53;;;11.30;;
20928;SDS011;21895;47.072;15.132;2022-10-16T07:21:27;20.40;;;9.53;;
20928;SDS011;21895;47.072;15.132;2022-10-16T07:24:01;32.70;;;9.80;;
20928;SDS011;21895;47.072;15.132;2022-10-16T07:26:29;22.67;;;9.87;;
20928;SDS011;21895;47.072;15.132;2022-10-16T07:28:58;18.63;;;9.43;;
20928;SDS011;21895;47.072;15.132;2022-10-16T07:31:26;25.23;;;9.47;;
20928;SDS011;21895;47.072;15.132;2022-10-16T07:33:53;18.10;;;9.20;;
20928;SDS011;21895;47.072;15.132;2022-10-16T07:36:20;28.23;;;9.57;;
20928;SDS011;21895;47.072;15.132;2022-10-16T07:38:47;21.10;;;8.70;;
20928;SDS011;21895;47.072;15.132;2022-10-16T07:41:14;15.13;;;8.77;;
20928;SDS011;21895;47.072;15.132;2022-10-16T07:43:45;21.97;;;8.93;;
20928;SDS011;21895;47.072;15.132;2022-10-16T07:46:14;18.37;;;8.63;;
20928;SDS011;21895;47.072;15.132;2022-10-16T07:48:42;20.27;;;8.43;;
20928;SDS011;21895;47.072;15.132;2022-10-16T07:51:20;18.03;;;8.90;;
20928;SDS011;21895;47.072;15.132;2022-10-16T07:53:50;14.43;;;8.10;;
20928;SDS011;21895;47.072;15.132;2022-10-16T07:56:17;25.27;;;9.63;;
20928;SDS011;21895;47.072;15.132;2022-10-16T07:58:45;16.83;;;8.87;;
20928;SDS011;21895;47.072;15.132;2022-10-16T08:01:12;21.93;;;8.63;;
20928;SDS011;21895;47.072;15.132;2022-10-16T08:03:42;24.07;;;12.07;;
20928;SDS011;21895;47.072;15.132;2022-10-16T08:06:14;20.10;;;9.60;;
20928;SDS011;21895;47.072;15.132;2022-10-16T08:08:42;19.17;;;9.43;;
20928;SDS011;21895;47.072;15.132;2022-10-16T08:11:08;23.93;;;9.03;;
20928;SDS011;21895;47.072;15.132;2022-10-16T08:13:36;18.67;;;9.37;;
20928;SDS011;21895;47.072;15.132;2022-10-16T08:16:03;18.00;;;9.10;;
20928;SDS011;21895;47.072;15.132;2022-10-16T08:18:34;18.15;;;8.38;;
20928;SDS011;21895;47.072;15.132;2022-10-16T08:21:02;14.70;;;7.47;;
20928;SDS011;21895;47.072;15.132;2022-10-16T08:23:30;18.60;;;7.82;;
20928;SDS011;21895;47.072;15.132;2022-10-16T08:25:56;13.95;;;7.12;;
20928;SDS011;21895;47.072;15.132;2022-10-16T08:28:30;9.80;;;6.12;;
20928;SDS011;21895;47.072;15.132;2022-10-16T08:31:04;9.98;;;6.65;;
20928;SDS011;21895;47.072;15.132;2022-10-16T08:33:36;13.47;;;6.70;;
20928;SDS011;21895;47.072;15.132;2022-10-16T08:36:04;12.37;;;7.05;;
20928;SDS011;21895;47.072;15.132;2022-10-16T08:38:32;15.57;;;7.05;;
20928;SDS011;21895;47.072;15.132;2022-10-16T08:44:19;14.15;;;7.78;;
20928;SDS011;21895;47.072;15.132;2022-10-16T08:47:45;17.55;;;8.85;;
20928;SDS011;21895;47.072;15.132;2022-10-16T08:50:43;21.35;;;10.35;;
20928;SDS011;21895;47.072;15.132;2022-10-16T08:53:14;21.65;;;9.80;;
20928;SDS011;21895;47.072;15.132;2022-10-16T08:55:53;19.60;;;9.07;;
20928;SDS011;21895;47.072;15.132;2022-10-16T08:58:26;15.27;;;8.15;;
20928;SDS011;21895;47.072;15.132;2022-10-16T09:00:58;12.82;;;8.18;;
20928;SDS011;21895;47.072;15.132;2022-10-16T09:03:40;17.70;;;8.75;;
20928;SDS011;21895;47.072;15.132;2022-10-16T09:16:12;17.80;;;7.40;;
20928;SDS011;21895;47.072;15.132;2022-10-16T09:23:49;13.60;;;6.70;;
20928;SDS011;21895;47.072;15.132;2022-10-16T09:26:16;12.80;;;5.93;;
20928;SDS011;21895;47.072;15.132;2022-10-16T09:28:47;11.32;;;7.15;;
20928;SDS011;21895;47.072;15.132;2022-10-16T09:31:20;14.05;;;6.80;;
20928;SDS011;21895;47.072;15.132;2022-10-16T09:33:52;15.70;;;6.20;;
20928;SDS011;21895;47.072;15.132;2022-10-16T09:36:25;9.10;;;6.25;;
20928;SDS011;21895;47.072;15.132;2022-10-16T09:39:04;12.43;;;6.87;;
20928;SDS011;21895;47.072;15.132;2022-10-16T09:41:34;10.68;;;6.90;;
20928;SDS011;21895;47.072;15.132;2022-10-16T09:47:03;12.07;;;7.47;;
20928;SDS011;21895;47.072;15.132;2022-10-16T09:49:38;12.93;;;8.07;;
20928;SDS011;21895;47.072;15.132;2022-10-16T09:52:15;15.48;;;7.55;;
20928;SDS011;21895;47.072;15.132;2022-10-16T09:54:52;14.73;;;8.25;;
20928;SDS011;21895;47.072;15.132;2022-10-16T09:57:28;13.52;;;8.38;;
20928;SDS011;21895;47.072;15.132;2022-10-16T09:59:57;12.75;;;8.27;;
20928;SDS011;21895;47.072;15.132;2022-10-16T10:02:31;11.55;;;7.55;;
20928;SDS011;21895;47.072;15.132;2022-10-16T10:05:06;13.68;;;7.43;;
20928;SDS011;21895;47.072;15.132;2022-10-16T10:07:55;15.20;;;7.80;;
20928;SDS011;21895;47.072;15.132;2022-10-16T10:10:26;14.90;;;7.95;;
20928;SDS011;21895;47.072;15.132;2022-10-16T10:12:55;13.20;;;7.50;;
20928;SDS011;21895;47.072;15.132;2022-10-16T10:15:22;13.02;;;8.52;;
20928;SDS011;21895;47.072;15.132;2022-10-16T10:17:53;13.10;;;7.62;;
20928;SDS011;21895;47.072;15.132;2022-10-16T10:23:20;12.48;;;7.75;;
20928;SDS011;21895;47.072;15.132;2022-10-16T10:29:05;14.32;;;8.43;;
20928;SDS011;21895;47.072;15.132;2022-10-16T10:35:38;15.18;;;8.35;;
20928;SDS011;21895;47.072;15.132;2022-10-16T10:42:21;17.58;;;8.85;;
20928;SDS011;21895;47.072;15.132;2022-10-16T10:48:54;16.15;;;9.32;;
20928;SDS011;21895;47.072;15.132;2022-10-16T11:02:22;18.30;;;9.02;;
20928;SDS011;21895;47.072;15.132;2022-10-16T11:09:33;22.23;;;9.75;;
20928;SDS011;21895;47.072;15.132;2022-10-16T11:13:19;19.08;;;9.55;;
20928;SDS011;21895;47.072;15.132;2022-10-16T11:18:27;15.35;;;9.70;;
20928;SDS011;21895;47.072;15.132;2022-10-16T11:22:00;18.48;;;10.25;;
20928;SDS011;21895;47.072;15.132;2022-10-16T11:25:02;13.68;;;9.18;;
20928;SDS011;21895;47.072;15.132;2022-10-16T11:33:40;14.77;;;9.02;;
20928;SDS011;21895;47.072;15.132;2022-10-16T11:36:33;15.20;;;9.07;;
20928;SDS011;21895;47.072;15.132;2022-10-16T11:39:21;20.52;;;10.43;;
20928;SDS011;21895;47.072;15.132;2022-10-16T11:47:10;12.52;;;8.65;;
20928;SDS011;21895;47.072;15.132;2022-10-16T11:50:46;18.15;;;9.27;;
20928;SDS011;21895;47.072;15.132;2022-10-16T11:55:23;16.73;;;9.50;;
20928;SDS011;21895;47.072;15.132;2022-10-16T12:07:24;20.45;;;9.68;;
20928;SDS011;21895;47.072;15.132;2022-10-16T12:10:25;23.30;;;9.23;;
20928;SDS011;21895;47.072;15.132;2022-10-16T12:12:54;14.25;;;9.10;;
20928;SDS011;21895;47.072;15.132;2022-10-16T12:15:29;13.90;;;8.70;;
20928;SDS011;21895;47.072;15.132;2022-10-16T12:18:24;14.00;;;9.73;;
20928;SDS011;21895;47.072;15.132;2022-10-16T12:20:54;19.80;;;9.27;;
20928;SDS011;21895;47.072;15.132;2022-10-16T12:23:30;15.52;;;9.52;;
20928;SDS011;21895;47.072;15.132;2022-10-16T12:26:26;14.60;;;9.20;;
20928;SDS011;21895;47.072;15.132;2022-10-16T12:29:09;15.57;;;10.25;;
20928;SDS011;21895;47.072;15.132;2022-10-16T12:32:04;14.95;;;9.40;;
20928;SDS011;21895;47.072;15.132;2022-10-16T12:35:22;15.20;;;9.82;;
20928;SDS011;21895;47.072;15.132;2022-10-16T12:38:14;19.80;;;9.52;;
20928;SDS011;21895;47.072;15.132;2022-10-16T12:41:00;16.52;;;9.50;;
20928;SDS011;21895;47.072;15.132;2022-10-16T12:43:37;18.55;;;9.88;;
20928;SDS011;21895;47.072;15.132;2022-10-16T12:49:29;19.23;;;11.48;;
20928;SDS011;21895;47.072;15.132;2022-10-16T12:52:02;23.75;;;11.05;;
20928;SDS011;21895;47.072;15.132;2022-10-16T12:54:38;15.52;;;10.27;;
20928;SDS011;21895;47.072;15.132;2022-10-16T13:07:43;19.92;;;10.82;;
20928;SDS011;21895;47.072;15.132;2022-10-16T13:18:19;15.70;;;10.40;;
20928;SDS011;21895;47.072;15.132;2022-10-16T13:21:52;20.20;;;10.88;;
20928;SDS011;21895;47.072;15.132;2022-10-16T13:25:29;17.02;;;10.55;;
20928;SDS011;21895;47.072;15.132;2022-10-16T13:28:37;19.17;;;10.30;;
20928;SDS011;21895;47.072;15.132;2022-10-16T13:31:05;14.95;;;10.15;;
20928;SDS011;21895;47.072;15.132;2022-10-16T13:33:51;16.60;;;10.93;;
20928;SDS011;21895;47.072;15.132;2022-10-16T13:36:25;16.35;;;9.65;;
20928;SDS011;21895;47.072;15.132;2022-10-16T13:39:10;21.35;;;11.18;;
20928;SDS011;21895;47.072;15.132;2022-10-16T13:42:06;16.33;;;11.20;;
20928;SDS011;21895;47.072;15.132;2022-10-16T13:44:47;16.60;;;10.55;;
20928;SDS011;21895;47.072;15.132;2022-10-16T13:47:25;15.65;;;10.75;;
20928;SDS011;21895;47.072;15.132;2022-10-16T13:50:14;24.85;;;10.98;;
20928;SDS011;21895;47.072;15.132;2022-10-16T13:52:43;21.60;;;10.73;;
20928;SDS011;21895;47.072;15.132;2022-10-16T13:55:11;22.67;;;11.65;;
20928;SDS011;21895;47.072;15.132;2022-10-16T13:57:43;21.23;;;11.27;;
20928;SDS011;21895;47.072;15.132;2022-10-16T14:00:18;17.42;;;10.80;;
20928;SDS011;21895;47.072;15.132;2022-10-16T14:02:58;16.83;;;11.12;;
20928;SDS011;21895;47.072;15.132;2022-10-16T14:05:33;17.45;;;11.45;;
20928;SDS011;21895;47.072;15.132;2022-10-16T14:08:00;17.48;;;10.55;;
20928;SDS011;21895;47.072;15.132;2022-10-16T14:10:28;16.27;;;11.27;;
20928;SDS011;21895;47.072;15.132;2022-10-16T14:12:58;19.30;;;10.98;;
20928;SDS011;21895;47.072;15.132;2022-10-16T14:15:29;18.48;;;11.00;;
20928;SDS011;21895;47.072;15.132;2022-10-16T14:17:58;17.80;;;11.75;;
20928;SDS011;21895;47.072;15.132;2022-10-16T14:20:29;17.90;;;11.07;;
20928;SDS011;21895;47.072;15.132;2022-10-16T14:23:03;21.85;;;11.85;;
20928;SDS011;21895;47.072;15.132;2022-10-16T14:29:28;17.50;;;11.05;;
20928;SDS011;21895;47.072;15.132;2022-10-16T14:31:57;23.35;;;12.63;;
20928;SDS011;21895;47.072;15.132;2022-10-16T14:34:29;20.95;;;11.75;;
20928;SDS011;21895;47.072;15.132;2022-10-16T14:37:08;22.65;;;11.52;;
20928;SDS011;21895;47.072;15.132;2022-10-16T14:39:53;23.67;;;13.50;;
20928;SDS011;21895;47.072;15.132;2022-10-16T14:42:22;22.10;;;13.43;;
20928;SDS011;21895;47.072;15.132;2022-10-16T14:44:53;24.17;;;12.55;;
20928;SDS011;21895;47.072;15.132;2022-10-16T14:47:22;23.55;;;13.32;;
20928;SDS011;21895;47.072;15.132;2022-10-16T14:49:52;24.75;;;13.52;;
20928;SDS011;21895;47.072;15.132;2022-10-16T14:52:25;25.17;;;13.62;;
20928;SDS011;21895;47.072;15.132;2022-10-16T14:54:51;20.58;;;13.05;;
20928;SDS011;21895;47.072;15.132;2022-10-16T14:57:22;26.23;;;14.65;;
20928;SDS011;21895;47.072;15.132;2022-10-16T14:59:55;23.77;;;13.45;;
20928;SDS011;21895;47.072;15.132;2022-10-16T15:02:30;29.90;;;13.82;;
20928;SDS011;21895;47.072;15.132;2022-10-16T15:05:13;23.30;;;14.57;;
20928;SDS011;21895;47.072;15.132;2022-10-16T15:07:46;21.05;;;13.38;;
20928;SDS011;21895;47.072;15.132;2022-10-16T15:10:13;26.83;;;13.80;;
20928;SDS011;21895;47.072;15.132;2022-10-16T15:12:40;26.60;;;13.98;;
20928;SDS011;21895;47.072;15.132;2022-10-16T15:15:28;21.85;;;13.62;;
20928;SDS011;21895;47.072;15.132;2022-10-16T15:18:07;22.30;;;13.88;;
20928;SDS011;21895;47.072;15.132;2022-10-16T15:20:34;28.50;;;14.93;;
20928;SDS011;21895;47.072;15.132;2022-10-16T15:23:04;24.92;;;14.23;;
20928;SDS011;21895;47.072;15.132;2022-10-16T15:25:46;28.45;;;14.27;;
20928;SDS011;21895;47.072;15.132;2022-10-16T15:28:18;25.58;;;15.68;;
20928;SDS011;21895;47.072;15.132;2022-10-16T15:30:49;26.02;;;14.60;;
20928;SDS011;21895;47.072;15.132;2022-10-16T15:33:19;25.37;;;14.63;;
20928;SDS011;21895;47.072;15.132;2022-10-16T15:35:50;24.05;;;14.07;;
20928;SDS011;21895;47.072;15.132;2022-10-16T15:38:19;24.00;;;13.82;;
20928;SDS011;21895;47.072;15.132;2022-10-16T15:40:47;27.15;;;15.02;;
20928;SDS011;21895;47.072;15.132;2022-10-16T15:43:15;27.20;;;14.32;;
20928;SDS011;21895;47.072;15.132;2022-10-16T15:45:42;29.10;;;15.25;;
20928;SDS011;21895;47.072;15.132;2022-10-16T15:48:12;24.20;;;14.38;;
20928;SDS011;21895;47.072;15.132;2022-10-16T15:50:39;26.80;;;14.63;;
20928;SDS011;21895;47.072;15.132;2022-10-16T15:53:06;30.95;;;15.23;;
20928;SDS011;21895;47.072;15.132;2022-10-16T15:55:33;40.20;;;17.25;;
20928;SDS011;21895;47.072;15.132;2022-10-16T15:58:03;38.83;;;17.87;;
20928;SDS011;21895;47.072;15.132;2022-10-16T16:00:30;48.95;;;19.25;;
20928;SDS011;21895;47.072;15.132;2022-10-16T16:02:56;36.47;;;19.45;;
20928;SDS011;21895;47.072;15.132;2022-10-16T16:05:23;36.22;;;18.12;;
20928;SDS011;21895;47.072;15.132;2022-10-16T16:07:49;36.85;;;18.37;;
20928;SDS011;21895;47.072;15.132;2022-10-16T16:10:16;35.80;;;18.67;;
20928;SDS011;21895;47.072;15.132;2022-10-16T16:12:45;38.38;;;17.83;;
20928;SDS011;21895;47.072;15.132;2022-10-16T16:15:17;38.03;;;19.02;;
20928;SDS011;21895;47.072;15.132;2022-10-16T16:17:49;35.92;;;19.20;;
20928;SDS011;21895;47.072;15.132;2022-10-16T16:20:15;43.67;;;19.98;;
20928;SDS011;21895;47.072;15.132;2022-10-16T16:22:42;42.75;;;19.83;;
20928;SDS011;21895;47.072;15.132;2022-10-16T16:25:08;36.28;;;18.98;;
20928;SDS011;21895;47.072;15.132;2022-10-16T16:27:35;31.35;;;16.27;;
20928;SDS011;21895;47.072;15.132;2022-10-16T16:30:04;31.75;;;16.25;;
20928;SDS011;21895;47.072;15.132;2022-10-16T16:32:33;33.25;;;17.08;;
20928;SDS011;21895;47.072;15.132;2022-10-16T16:35:01;35.53;;;18.05;;
20928;SDS011;21895;47.072;15.132;2022-10-16T16:37:28;39.42;;;18.52;;
20928;SDS011;21895;47.072;15.132;2022-10-16T16:39:56;41.58;;;18.58;;